Time;durP1;ratioP1;P1;durP2;ratioP2;P2;SDS_P1;SDS_P2;PMS_P1;PMS_P2;Temp;Humidity;BMP_temperature;BMP_pressure;BME280_temperature;BME280_humidity;BME280_pressure;Samples;Min_cycle;Max_cycle;Signal;HPM_P1;HPM_P2
2023/10/27 00:01:35;;;;;;;4.97;2.65;;;11.50;99.90;;;;;;6251763;28;20077;-75
2023/10/27 00:04:37;;;;;;;2.47;2.20;;;11.50;99.90;;;;;;6248285;28;20041;-75
2023/10/27 00:07:39;;;;;;;10.52;3.10;;;11.50;99.90;;;;;;6257043;28;20041;-75
2023/10/27 00:10:40;;;;;;;2.10;1.48;;;11.50;99.90;;;;;;6251182;28;20041;-75
2023/10/27 00:13:43;;;;;;;9.63;2.50;;;11.60;99.90;;;;;;6255018;28;20418;-75
2023/10/27 00:16:45;;;;;;;1.73;1.40;;;11.60;99.90;;;;;;6254735;28;20094;-75
2023/10/27 00:19:47;;;;;;;2.53;1.88;;;11.60;99.90;;;;;;6253984;28;20599;-76
2023/10/27 00:22:48;;;;;;;3.30;2.03;;;11.60;99.90;;;;;;6258868;28;20422;-76
2023/10/27 00:25:51;;;;;;;9.68;2.15;;;11.60;99.90;;;;;;6249334;28;20055;-76
2023/10/27 00:28:54;;;;;;;2.85;1.70;;;11.60;99.90;;;;;;6252323;28;20044;-76
2023/10/27 00:31:56;;;;;;;10.27;1.92;;;11.60;99.90;;;;;;6248964;28;20054;-75
2023/10/27 00:34:58;;;;;;;9.73;2.03;;;11.60;99.90;;;;;;6245848;28;20543;-76
2023/10/27 00:38:00;;;;;;;8.52;1.70;;;11.60;99.90;;;;;;6253862;28;20462;-76
2023/10/27 00:41:02;;;;;;;6.55;1.67;;;11.60;99.90;;;;;;6246277;28;20514;-76
2023/10/27 00:44:05;;;;;;;8.13;2.45;;;11.60;99.90;;;;;;6273164;28;20418;-75
2023/10/27 00:47:08;;;;;;;4.47;1.98;;;11.60;99.90;;;;;;6255265;28;20045;-75
2023/10/27 00:50:10;;;;;;;4.60;1.60;;;11.50;99.90;;;;;;6253664;28;20418;-75
2023/10/27 00:53:13;;;;;;;3.13;1.50;;;11.50;99.90;;;;;;6253390;28;20049;-75
2023/10/27 00:56:16;;;;;;;2.35;1.80;;;11.50;99.90;;;;;;6253902;28;20053;-75
2023/10/27 00:59:19;;;;;;;4.93;1.38;;;11.50;99.90;;;;;;6236916;28;20403;-75
2023/10/27 01:02:21;;;;;;;9.80;1.92;;;11.50;99.90;;;;;;6237848;28;20048;-75
2023/10/27 01:05:23;;;;;;;2.40;1.27;;;11.50;99.90;;;;;;6245639;28;20502;-75
2023/10/27 01:08:25;;;;;;;3.63;1.23;;;11.50;99.90;;;;;;6244462;28;20392;-75
2023/10/27 01:11:27;;;;;;;4.22;1.25;;;11.40;99.90;;;;;;6246253;28;20055;-75
2023/10/27 01:14:30;;;;;;;7.95;2.47;;;11.40;99.90;;;;;;6251709;28;20041;-75
2023/10/27 01:17:32;;;;;;;2.10;0.82;;;11.40;99.90;;;;;;6255552;28;20053;-76
2023/10/27 01:20:33;;;;;;;2.25;1.00;;;11.40;99.90;;;;;;6261466;28;20059;-76
2023/10/27 01:23:36;;;;;;;2.63;1.15;;;11.40;99.90;;;;;;6250997;28;20053;-75
2023/10/27 01:26:38;;;;;;;3.53;1.33;;;11.40;99.90;;;;;;6244418;28;20055;-76
2023/10/27 01:29:41;;;;;;;1.05;0.95;;;11.40;99.90;;;;;;6245241;28;20049;-76
2023/10/27 01:32:43;;;;;;;1.70;1.23;;;11.40;99.90;;;;;;6236352;28;20099;-76
2023/10/27 01:35:45;;;;;;;4.63;1.10;;;11.40;99.90;;;;;;6256407;28;20041;-76
2023/10/27 01:38:48;;;;;;;4.30;1.27;;;11.40;99.90;;;;;;6249105;28;20041;-76
2023/10/27 01:41:50;;;;;;;7.93;1.52;;;11.40;99.90;;;;;;6236699;28;20054;-76
2023/10/27 01:44:54;;;;;;;3.33;1.35;;;11.40;99.90;;;;;;6245047;28;20057;-75
2023/10/27 01:47:55;;;;;;;7.90;1.88;;;11.30;99.90;;;;;;6244853;28;20053;-76
2023/10/27 01:50:57;;;;;;;5.07;1.10;;;11.30;99.90;;;;;;6245524;28;20046;-75
2023/10/27 01:54:00;;;;;;;1.40;1.13;;;11.30;99.90;;;;;;6263318;28;20060;-76
2023/10/27 01:57:02;;;;;;;1.05;0.70;;;11.30;99.90;;;;;;6245400;28;20050;-75
2023/10/27 02:00:04;;;;;;;3.67;1.17;;;11.30;99.90;;;;;;6244468;28;20495;-75
2023/10/27 02:03:05;;;;;;;6.15;1.70;;;11.20;99.90;;;;;;6244219;28;20064;-75
2023/10/27 02:06:07;;;;;;;3.60;1.00;;;11.20;99.90;;;;;;6244277;28;20498;-75
2023/10/27 02:09:11;;;;;;;0.60;0.60;;;11.20;99.90;;;;;;6244735;28;20045;-75
2023/10/27 02:12:12;;;;;;;2.38;1.35;;;11.20;99.90;;;;;;6243975;28;20524;-75
2023/10/27 02:15:14;;;;;;;5.78;1.38;;;11.20;99.90;;;;;;6244251;28;20049;-75
2023/10/27 02:18:16;;;;;;;5.85;1.52;;;11.20;99.90;;;;;;6244068;28;20041;-75
2023/10/27 02:21:17;;;;;;;1.00;0.80;;;11.20;99.90;;;;;;6248814;28;20521;-75
2023/10/27 02:24:21;;;;;;;4.65;1.60;;;11.20;99.90;;;;;;6248657;28;20422;-75
2023/10/27 02:27:22;;;;;;;10.57;1.30;;;11.20;99.90;;;;;;6248725;28;20057;-75
2023/10/27 02:30:24;;;;;;;1.83;1.33;;;11.20;99.90;;;;;;6256955;28;20045;-75
2023/10/27 02:33:26;;;;;;;4.05;1.25;;;11.10;99.90;;;;;;6257664;28;20053;-76
2023/10/27 02:36:27;;;;;;;1.42;0.65;;;11.10;99.90;;;;;;6248745;28;20049;-74
2023/10/27 02:39:30;;;;;;;6.18;1.50;;;11.10;99.90;;;;;;6248077;28;20038;-74
2023/10/27 02:42:32;;;;;;;3.00;1.63;;;11.10;99.90;;;;;;6250112;28;20045;-74
2023/10/27 02:45:34;;;;;;;5.30;1.38;;;11.10;99.90;;;;;;6257006;28;20056;-74
2023/10/27 02:48:35;;;;;;;8.70;3.28;;;11.10;99.90;;;;;;6263074;28;20525;-75
2023/10/27 02:51:37;;;;;;;1.80;1.33;;;11.10;99.90;;;;;;6250125;28;20045;-75
2023/10/27 02:54:40;;;;;;;3.80;1.10;;;11.10;99.90;;;;;;6253834;28;20076;-75
2023/10/27 02:57:42;;;;;;;3.35;1.40;;;11.10;99.90;;;;;;6245921;28;20507;-75
2023/10/27 03:00:44;;;;;;;7.28;1.30;;;11.10;99.90;;;;;;6257314;28;20044;-75
2023/10/27 03:03:46;;;;;;;4.00;1.25;;;11.00;99.90;;;;;;6259692;28;20134;-75
2023/10/27 03:06:48;;;;;;;4.55;0.77;;;11.00;99.90;;;;;;6251189;28;20042;-75
2023/10/27 03:09:51;;;;;;;2.25;0.95;;;11.00;99.90;;;;;;6247719;28;20057;-75
2023/10/27 03:12:52;;;;;;;6.85;1.38;;;11.00;99.90;;;;;;6248137;28;20052;-75
2023/10/27 03:15:54;;;;;;;8.30;1.75;;;11.00;99.90;;;;;;6235279;28;20498;-75
2023/10/27 03:18:56;;;;;;;8.55;2.50;;;11.00;99.90;;;;;;6251459;28;20045;-75
2023/10/27 03:21:58;;;;;;;8.98;1.45;;;11.00;99.90;;;;;;6252192;28;20045;-75
2023/10/27 03:25:03;;;;;;;3.13;1.35;;;11.00;99.90;;;;;;6259665;28;20068;-75
2023/10/27 03:28:06;;;;;;;6.68;1.23;;;11.00;99.90;;;;;;6237400;28;20049;-75
2023/10/27 03:31:08;;;;;;;0.90;0.60;;;11.00;99.90;;;;;;6247237;28;20045;-76
2023/10/27 03:34:10;;;;;;;1.30;0.80;;;11.00;99.90;;;;;;6255893;28;20049;-75
2023/10/27 03:37:11;;;;;;;5.45;1.35;;;11.00;99.90;;;;;;6256135;28;20059;-75
2023/10/27 03:40:15;;;;;;;1.70;0.75;;;11.00;99.90;;;;;;6246776;28;20044;-75
2023/10/27 03:43:16;;;;;;;3.85;1.63;;;11.00;99.90;;;;;;6248760;28;20049;-76
2023/10/27 03:46:18;;;;;;;1.60;1.08;;;11.00;99.90;;;;;;6254063;28;20038;-76
2023/10/27 03:49:20;;;;;;;0.40;0.40;;;11.00;99.90;;;;;;6247419;28;20049;-76
2023/10/27 03:52:21;;;;;;;6.80;1.30;;;11.00;99.90;;;;;;6254976;28;20080;-76
2023/10/27 03:55:24;;;;;;;1.08;0.93;;;11.00;99.90;;;;;;6246983;28;20049;-76
2023/10/27 03:58:26;;;;;;;4.68;1.35;;;11.00;99.90;;;;;;6255065;28;20056;-76
2023/10/27 04:01:28;;;;;;;0.60;0.60;;;11.00;99.90;;;;;;6255673;28;20079;-76
2023/10/27 04:04:29;;;;;;;1.40;0.98;;;11.00;99.90;;;;;;6255609;28;20045;-75
2023/10/27 04:07:31;;;;;;;3.10;0.82;;;11.00;99.90;;;;;;6262576;28;20052;-76
2023/10/27 04:10:35;;;;;;;0.85;0.80;;;11.00;99.90;;;;;;6258827;28;20045;-76
2023/10/27 04:13:37;;;;;;;8.20;0.80;;;11.00;99.90;;;;;;6247746;28;20050;-76
2023/10/27 04:16:38;;;;;;;0.50;0.50;;;11.00;99.90;;;;;;6255138;28;20049;-76
2023/10/27 04:19:42;;;;;;;1.92;0.80;;;11.00;99.90;;;;;;6261849;28;20386;-75
2023/10/27 04:22:44;;;;;;;1.85;0.90;;;11.00;99.90;;;;;;6267043;28;20098;-76
2023/10/27 04:25:48;;;;;;;2.90;0.93;;;11.00;99.90;;;;;;6259991;28;20498;-76
2023/10/27 04:28:50;;;;;;;2.42;0.75;;;11.00;99.90;;;;;;6258076;28;20056;-76
2023/10/27 04:31:52;;;;;;;2.45;0.93;;;11.00;99.90;;;;;;6251126;28;20048;-75
2023/10/27 04:34:54;;;;;;;4.38;0.93;;;11.00;99.90;;;;;;6246115;28;20418;-76
2023/10/27 04:37:56;;;;;;;3.63;0.95;;;11.00;99.90;;;;;;6262533;28;20228;-76
2023/10/27 04:40:59;;;;;;;4.70;1.60;;;11.00;99.90;;;;;;6246376;28;20118;-76
2023/10/27 04:44:01;;;;;;;1.60;0.85;;;11.00;99.90;;;;;;6245522;28;20056;-76
2023/10/27 04:47:03;;;;;;;1.90;1.30;;;11.00;99.90;;;;;;6246060;28;20053;-76
2023/10/27 04:50:06;;;;;;;2.20;1.05;;;11.00;99.90;;;;;;6246342;28;20493;-76
2023/10/27 04:53:08;;;;;;;5.72;2.78;;;11.00;99.90;;;;;;6245956;28;20045;-76
2023/10/27 04:56:11;;;;;;;0.88;0.88;;;11.00;99.90;;;;;;6245587;28;20049;-76
2023/10/27 04:59:13;;;;;;;8.00;1.52;;;11.00;99.90;;;;;;6245474;28;20034;-76
2023/10/27 05:02:15;;;;;;;0.50;0.50;;;11.00;99.90;;;;;;6245741;28;20041;-76
2023/10/27 05:05:18;;;;;;;2.50;1.10;;;11.00;99.90;;;;;;6245800;28;20056;-75
2023/10/27 05:08:20;;;;;;;12.10;1.50;;;11.00;99.90;;;;;;6245219;28;20049;-76
2023/10/27 05:11:23;;;;;;;4.13;0.82;;;10.90;99.90;;;;;;6245343;28;20045;-75
2023/10/27 05:14:25;;;;;;;1.70;1.33;;;10.90;99.90;;;;;;6245254;28;20049;-75
2023/10/27 05:17:26;;;;;;;6.13;1.65;;;10.90;99.90;;;;;;6245676;28;20057;-76
2023/10/27 05:20:28;;;;;;;6.57;1.02;;;10.90;99.90;;;;;;6257673;28;20140;-76
2023/10/27 05:23:30;;;;;;;2.67;1.23;;;10.90;99.90;;;;;;6245534;28;20054;-76
2023/10/27 05:26:33;;;;;;;1.75;1.02;;;10.90;99.90;;;;;;6244737;28;20042;-76
2023/10/27 05:29:34;;;;;;;0.98;0.90;;;10.90;99.90;;;;;;6245267;28;20043;-75
2023/10/27 05:32:36;;;;;;;3.08;0.98;;;10.80;99.90;;;;;;6244901;28;20533;-75
2023/10/27 05:35:38;;;;;;;1.42;1.10;;;10.80;99.90;;;;;;6244847;28;20430;-76
2023/10/27 05:38:39;;;;;;;0.93;0.93;;;10.70;99.90;;;;;;6244688;28;20502;-76
2023/10/27 05:41:43;;;;;;;1.40;1.13;;;10.70;99.90;;;;;;6245148;28;20530;-76
2023/10/27 05:44:44;;;;;;;3.05;1.38;;;10.70;99.90;;;;;;6244830;28;20049;-75
2023/10/27 05:47:46;;;;;;;1.60;0.90;;;10.70;99.90;;;;;;6244547;28;20046;-75
2023/10/27 05:50:48;;;;;;;9.25;1.15;;;10.70;99.90;;;;;;6244717;28;20186;-76
2023/10/27 05:53:49;;;;;;;1.48;0.98;;;10.60;99.90;;;;;;6245547;28;20057;-77
2023/10/27 05:56:52;;;;;;;4.78;1.23;;;10.70;99.90;;;;;;6250402;28;20049;-75
2023/10/27 05:59:54;;;;;;;1.52;0.85;;;10.70;99.90;;;;;;6249486;28;20111;-75
2023/10/27 06:02:56;;;;;;;1.23;1.02;;;10.70;99.90;;;;;;6249741;28;20063;-76
2023/10/27 06:05:58;;;;;;;4.50;0.57;;;10.70;99.90;;;;;;6249259;28;20099;-76
2023/10/27 06:08:59;;;;;;;3.67;1.27;;;10.70;99.90;;;;;;6249599;28;20053;-75
2023/10/27 06:12:03;;;;;;;0.68;0.65;;;10.70;99.90;;;;;;6249434;28;20041;-75
2023/10/27 06:15:06;;;;;;;0.98;0.93;;;10.70;99.90;;;;;;6253679;28;20056;-75
2023/10/27 06:18:07;;;;;;;1.45;1.15;;;10.70;99.90;;;;;;6261218;28;20041;-75
2023/10/27 06:21:09;;;;;;;1.05;0.65;;;10.80;99.90;;;;;;6249428;28;20049;-75
2023/10/27 06:24:11;;;;;;;0.65;0.65;;;10.80;99.90;;;;;;6248883;28;20037;-76
2023/10/27 06:27:14;;;;;;;3.95;0.73;;;10.80;99.90;;;;;;6259441;28;20049;-76
2023/10/27 06:30:16;;;;;;;5.28;0.65;;;10.90;99.90;;;;;;6268840;28;20414;-76
2023/10/27 06:33:18;;;;;;;1.77;1.08;;;10.90;99.90;;;;;;6250315;28;20053;-77
2023/10/27 06:36:20;;;;;;;0.70;0.43;;;11.00;99.90;;;;;;6249122;28;20041;-76
2023/10/27 06:39:21;;;;;;;1.05;0.90;;;11.00;99.90;;;;;;6255254;28;20052;-76
2023/10/27 06:42:25;;;;;;;1.00;0.55;;;11.10;99.90;;;;;;6252450;28;20419;-77
2023/10/27 06:45:27;;;;;;;1.10;0.80;;;11.10;99.90;;;;;;6250175;28;20064;-76
2023/10/27 06:48:29;;;;;;;1.05;0.95;;;11.10;99.90;;;;;;6250307;28;20049;-76
2023/10/27 06:51:30;;;;;;;1.17;0.65;;;11.20;99.90;;;;;;6250274;28;20042;-76
2023/10/27 06:54:32;;;;;;;0.93;0.80;;;11.20;99.90;;;;;;6258019;28;20048;-77
2023/10/27 06:57:37;;;;;;;0.68;0.68;;;11.30;99.90;;;;;;6207902;28;20042;-76
2023/10/27 07:00:38;;;;;;;4.90;0.60;;;11.30;99.90;;;;;;6248340;28;20033;-77
2023/10/27 07:03:46;;;;;;;6.90;0.90;;;11.30;99.90;;;;;;6244928;28;20042;-77
2023/10/27 07:06:47;;;;;;;3.70;0.75;;;11.40;99.90;;;;;;6252887;28;20139;-76
2023/10/27 07:09:50;;;;;;;1.35;0.60;;;11.40;99.90;;;;;;6249197;28;20072;-75
2023/10/27 07:12:53;;;;;;;4.72;0.82;;;11.40;99.90;;;;;;6259013;28;20441;-77
2023/10/27 07:15:55;;;;;;;0.75;0.75;;;11.50;99.90;;;;;;6240517;28;20060;-76
2023/10/27 07:18:57;;;;;;;0.75;0.70;;;11.40;99.90;;;;;;6249335;28;20037;-78
2023/10/27 07:21:58;;;;;;;4.13;0.65;;;11.50;99.90;;;;;;6257184;28;20415;-77
2023/10/27 07:25:00;;;;;;;1.48;0.75;;;11.60;99.90;;;;;;6260509;28;20047;-76
2023/10/27 07:28:03;;;;;;;1.42;0.73;;;11.60;99.90;;;;;;6272319;28;20051;-75
2023/10/27 07:31:05;;;;;;;1.10;0.75;;;11.60;99.90;;;;;;6267914;28;20060;-75
2023/10/27 07:34:07;;;;;;;0.88;0.70;;;11.70;99.90;;;;;;6247946;28;20079;-77
2023/10/27 07:37:09;;;;;;;1.23;1.13;;;11.80;99.90;;;;;;6261981;28;20064;-75
2023/10/27 07:40:11;;;;;;;1.30;0.77;;;11.80;99.90;;;;;;6251357;28;20049;-77
2023/10/27 07:43:14;;;;;;;6.95;1.00;;;11.80;99.90;;;;;;6248281;28;20425;-75
2023/10/27 07:46:16;;;;;;;5.60;1.08;;;11.80;99.90;;;;;;6247238;28;20053;-77
2023/10/27 07:49:17;;;;;;;3.50;0.73;;;11.80;99.90;;;;;;6249829;28;20054;-77
2023/10/27 07:52:19;;;;;;;1.13;1.00;;;11.70;99.90;;;;;;6240466;28;20046;-77
2023/10/27 07:55:21;;;;;;;0.52;0.52;;;11.70;99.90;;;;;;6213082;28;20050;-76
2023/10/27 07:58:25;;;;;;;0.82;0.80;;;11.70;99.90;;;;;;6205502;28;20049;-77
2023/10/27 08:01:27;;;;;;;0.50;0.50;;;11.60;99.90;;;;;;6200172;28;20038;-76
2023/10/27 08:04:32;;;;;;;0.75;0.65;;;11.60;99.90;;;;;;6224199;28;20045;-76
2023/10/27 08:07:34;;;;;;;3.85;0.98;;;11.60;99.90;;;;;;6224453;28;20053;-79
2023/10/27 08:10:38;;;;;;;0.63;0.43;;;11.60;99.90;;;;;;6224179;28;20041;-77
2023/10/27 08:13:41;;;;;;;1.23;0.52;;;11.60;99.90;;;;;;6215859;28;20512;-76
2023/10/27 08:16:42;;;;;;;0.65;0.60;;;11.60;99.90;;;;;;6182176;28;20251;-75
2023/10/27 08:19:44;;;;;;;0.20;0.20;;;11.60;99.90;;;;;;6196695;28;20064;-77
2023/10/27 08:22:46;;;;;;;0.43;0.40;;;11.60;99.90;;;;;;6176412;28;20043;-76
2023/10/27 08:25:50;;;;;;;0.43;0.43;;;11.60;99.90;;;;;;6176080;28;20476;-76
2023/10/27 08:28:53;;;;;;;1.40;0.77;;;11.60;99.90;;;;;;6234750;28;20053;-77
2023/10/27 08:31:55;;;;;;;0.45;0.45;;;11.70;99.90;;;;;;6233339;28;20125;-77
2023/10/27 08:34:57;;;;;;;0.70;0.60;;;11.70;99.90;;;;;;6229196;28;20138;-77
2023/10/27 08:37:59;;;;;;;0.20;0.20;;;11.80;99.90;;;;;;6237913;28;20049;-77
2023/10/27 08:41:01;;;;;;;0.45;0.25;;;11.90;99.90;;;;;;6242363;28;20045;-77
2023/10/27 08:44:05;;;;;;;2.53;0.70;;;12.00;99.90;;;;;;6238017;28;20135;-78
2023/10/27 08:47:07;;;;;;;0.95;0.68;;;12.10;99.90;;;;;;6244052;28;20502;-76
2023/10/27 08:50:09;;;;;;;0.50;0.50;;;12.10;99.90;;;;;;6224653;28;20042;-77
2023/10/27 08:53:12;;;;;;;7.22;0.68;;;12.20;99.90;;;;;;6228581;28;20048;-76
2023/10/27 08:56:15;;;;;;;0.93;0.80;;;12.20;99.90;;;;;;6242973;28;20042;-77
2023/10/27 08:59:18;;;;;;;2.22;1.05;;;12.20;99.90;;;;;;6235452;28;20399;-76
2023/10/27 09:02:29;;;;;;;0.80;0.68;;;12.30;99.90;;;;;;6237938;28;20049;-77
2023/10/27 09:05:32;;;;;;;0.65;0.65;;;12.50;99.90;;;;;;6231066;28;20052;-78
2023/10/27 09:08:34;;;;;;;0.85;0.60;;;12.70;99.90;;;;;;6232231;28;20041;-77
2023/10/27 09:11:41;;;;;;;0.93;0.90;;;12.80;99.90;;;;;;6237423;28;20120;-77
2023/10/27 09:14:44;;;;;;;4.03;0.90;;;12.80;99.90;;;;;;6242991;28;20041;-77
2023/10/27 09:17:54;;;;;;;1.20;1.05;;;12.70;99.90;;;;;;6221907;28;20130;-77
2023/10/27 09:20:56;;;;;;;0.38;0.38;;;12.60;99.90;;;;;;6231029;28;20056;-77
2023/10/27 09:23:58;;;;;;;0.20;0.20;;;12.50;99.90;;;;;;6231974;28;20056;-78
2023/10/27 09:27:00;;;;;;;0.80;0.60;;;12.40;99.90;;;;;;6225827;28;20060;-77
2023/10/27 09:30:04;;;;;;;0.90;0.82;;;12.50;99.90;;;;;;6237826;28;20061;-78
2023/10/27 09:33:15;;;;;;;1.13;1.02;;;12.50;99.90;;;;;;6239060;28;20045;-79
2023/10/27 09:36:17;;;;;;;3.15;0.80;;;12.50;99.90;;;;;;6236922;28;20048;-77
2023/10/27 09:39:20;;;;;;;0.38;0.38;;;12.50;99.90;;;;;;6233207;28;20056;-76
2023/10/27 09:42:22;;;;;;;1.38;1.10;;;12.50;99.90;;;;;;6232809;28;20046;-78
2023/10/27 09:45:28;;;;;;;6.55;0.93;;;12.50;99.90;;;;;;6226034;28;20056;-77
2023/10/27 09:48:32;;;;;;;2.67;0.88;;;12.50;99.90;;;;;;6244623;28;20554;-76
2023/10/27 09:51:38;;;;;;;2.55;0.90;;;12.50;99.90;;;;;;6255159;28;20057;-80
2023/10/27 09:54:41;;;;;;;1.35;0.88;;;12.50;99.90;;;;;;6263610;28;20049;-75
2023/10/27 09:57:44;;;;;;;1.33;1.00;;;12.60;99.90;;;;;;6249469;28;20042;-78
2023/10/27 10:00:48;;;;;;;10.68;0.90;;;13.30;99.90;;;;;;6250989;28;20049;-77
2023/10/27 10:03:50;;;;;;;1.00;0.65;;;14.20;99.90;;;;;;6250347;28;20155;-78
2023/10/27 10:06:52;;;;;;;1.25;0.70;;;14.60;99.90;;;;;;6250177;28;20559;-78
2023/10/27 10:09:54;;;;;;;3.65;0.73;;;14.80;99.90;;;;;;6250354;28;20180;-78
2023/10/27 10:13:09;;;;;;;3.30;0.77;;;15.10;99.90;;;;;;6251067;28;20054;-77
2023/10/27 10:16:13;;;;;;;0.43;0.43;;;15.00;99.90;;;;;;6250452;28;20052;-79
2023/10/27 10:19:48;;;;;;;5.82;1.20;;;15.10;99.90;;;;;;6250902;28;20176;-79
2023/10/27 10:22:53;;;;;;;2.78;0.70;;;15.10;99.90;;;;;;6249992;28;20060;-78
2023/10/27 10:25:56;;;;;;;3.50;0.88;;;15.10;99.90;;;;;;6248598;28;20050;-79
2023/10/27 10:29:32;;;;;;;3.63;1.52;;;15.20;99.90;;;;;;6226391;28;20060;-77
2023/10/27 10:32:38;;;;;;;3.55;0.60;;;15.50;99.90;;;;;;6228426;28;20073;-77
2023/10/27 10:35:39;;;;;;;1.15;0.93;;;15.50;99.90;;;;;;6225802;28;20552;-78
2023/10/27 10:38:44;;;;;;;1.42;1.20;;;15.50;99.90;;;;;;6224052;28;20050;-78
2023/10/27 10:42:02;;;;;;;2.03;1.30;;;15.70;99.90;;;;;;6237978;28;20042;-78
2023/10/27 10:45:04;;;;;;;2.20;1.13;;;15.40;99.90;;;;;;6230750;28;20785;-79
2023/10/27 10:48:08;;;;;;;5.15;1.05;;;15.20;99.90;;;;;;6231463;28;20094;-78
2023/10/27 10:51:14;;;;;;;3.00;1.27;;;15.10;99.90;;;;;;6255930;28;20049;-79
2023/10/27 10:54:16;;;;;;;5.18;1.05;;;15.00;99.90;;;;;;6267351;28;20046;-77
2023/10/27 10:57:21;;;;;;;1.90;1.02;;;15.00;99.90;;;;;;6255953;28;20406;-78
2023/10/27 11:00:22;;;;;;;2.10;0.90;;;15.00;99.90;;;;;;6249899;28;20132;-80
2023/10/27 11:03:28;;;;;;;2.40;1.25;;;14.90;99.90;;;;;;6255857;28;20018;-76
2023/10/27 11:06:30;;;;;;;1.25;1.15;;;14.90;99.90;;;;;;6257720;28;20061;-77
2023/10/27 11:09:32;;;;;;;1.83;0.80;;;14.80;99.90;;;;;;6258702;28;20486;-78
2023/10/27 11:12:34;;;;;;;6.88;1.23;;;14.60;99.90;;;;;;6251345;28;20573;-78
2023/10/27 11:15:43;;;;;;;3.78;0.70;;;14.10;99.90;;;;;;6251552;28;20522;-77
2023/10/27 11:18:49;;;;;;;1.50;0.43;;;13.60;99.90;;;;;;6250695;28;20045;-77
2023/10/27 11:21:53;;;;;;;1.23;0.90;;;13.10;99.90;;;;;;6251092;28;20049;-77
2023/10/27 11:24:55;;;;;;;12.00;1.55;;;12.70;99.90;;;;;;6242026;28;20057;-77
2023/10/27 11:27:56;;;;;;;1.92;1.15;;;12.40;99.90;;;;;;6241302;28;20056;-78
2023/10/27 11:31:03;;;;;;;12.52;4.28;;;12.20;99.90;;;;;;6232751;28;20052;-77
2023/10/27 11:34:08;;;;;;;7.68;3.25;;;12.10;99.90;;;;;;6229875;28;20050;-77
2023/10/27 11:37:10;;;;;;;25.05;12.00;;;12.10;99.90;;;;;;6232987;28;20674;-76
2023/10/27 11:40:14;;;;;;;53.70;19.92;;;12.10;99.90;;;;;;6237483;28;20058;-76
2023/10/27 11:43:16;;;;;;;32.60;19.75;;;12.30;99.90;;;;;;6232744;28;20053;-76
2023/10/27 11:46:19;;;;;;;11.25;8.05;;;12.70;99.90;;;;;;6233837;28;20050;-76
2023/10/27 11:49:22;;;;;;;19.90;9.25;;;13.20;99.90;;;;;;6231813;28;20064;-77
2023/10/27 11:52:24;;;;;;;12.15;7.28;;;13.60;99.90;;;;;;6223442;28;20034;-76
2023/10/27 11:55:26;;;;;;;27.73;16.58;;;13.70;99.90;;;;;;6233717;28;20450;-77
2023/10/27 11:58:27;;;;;;;22.60;13.35;;;13.80;99.90;;;;;;6230499;28;20135;-77
2023/10/27 12:01:29;;;;;;;3.72;2.17;;;14.20;99.90;;;;;;6227451;28;20057;-78
2023/10/27 12:04:32;;;;;;;3.15;2.67;;;14.70;99.90;;;;;;6233921;28;20068;-77
2023/10/27 12:07:34;;;;;;;1.50;1.40;;;15.10;99.90;;;;;;6228639;28;20049;-77
2023/10/27 12:10:36;;;;;;;1.75;1.55;;;15.50;99.90;;;;;;6239866;28;20045;-77
2023/10/27 12:13:37;;;;;;;2.72;2.42;;;15.70;99.90;;;;;;6256399;28;20059;-77
2023/10/27 12:16:39;;;;;;;0.60;0.50;;;15.80;99.90;;;;;;6238675;28;20041;-77
2023/10/27 12:19:44;;;;;;;2.72;1.95;;;15.90;99.90;;;;;;6232448;28;20049;-76
2023/10/27 12:22:46;;;;;;;1.55;0.90;;;15.70;99.90;;;;;;6224237;28;20042;-79
2023/10/27 12:25:48;;;;;;;3.28;1.48;;;15.80;99.90;;;;;;6247254;28;20415;-77
2023/10/27 12:28:50;;;;;;;3.80;0.80;;;15.90;99.90;;;;;;6280968;22;20124;-80
2023/10/27 12:31:52;;;;;;;2.28;0.82;;;16.10;99.90;;;;;;6262716;28;20042;-80
2023/10/27 12:34:56;;;;;;;2.97;0.77;;;16.10;99.90;;;;;;6282740;28;20045;-81
2023/10/27 12:37:58;;;;;;;1.02;0.68;;;16.00;99.90;;;;;;6259413;28;20140;-80
2023/10/27 12:41:00;;;;;;;1.75;1.58;;;15.90;99.90;;;;;;6259538;28;20472;-80
2023/10/27 12:44:02;;;;;;;1.17;1.08;;;16.00;99.90;;;;;;6277273;28;20179;-82
2023/10/27 12:47:04;;;;;;;0.40;0.40;;;16.10;99.90;;;;;;6271165;28;20045;-80
2023/10/27 12:50:08;;;;;;;1.27;1.17;;;15.90;99.90;;;;;;6269775;28;20143;-81
2023/10/27 12:53:11;;;;;;;3.20;1.98;;;15.90;99.90;;;;;;6277979;28;20041;-80
2023/10/27 12:56:13;;;;;;;0.50;0.50;;;15.80;99.90;;;;;;6276390;28;20052;-80
2023/10/27 12:59:15;;;;;;;2.53;1.52;;;16.10;99.90;;;;;;6277335;28;20048;-80
2023/10/27 13:02:17;;;;;;;1.58;0.80;;;16.40;99.90;;;;;;6258707;28;20056;-81
2023/10/27 13:05:20;;;;;;;0.57;0.57;;;16.80;99.90;;;;;;6260656;28;20047;-80
2023/10/27 13:08:21;;;;;;;1.17;1.08;;;17.20;99.90;;;;;;6258304;28;20041;-81
2023/10/27 13:11:23;;;;;;;1.00;0.93;;;17.40;99.90;;;;;;6276237;28;20045;-82
2023/10/27 13:14:25;;;;;;;1.23;0.60;;;17.70;99.90;;;;;;6269239;28;20037;-81
2023/10/27 13:17:27;;;;;;;0.60;0.60;;;17.80;99.90;;;;;;6264119;28;20049;-82
2023/10/27 13:20:30;;;;;;;0.60;0.60;;;17.40;99.90;;;;;;6263010;28;20045;-79
2023/10/27 13:23:32;;;;;;;0.88;0.60;;;17.20;99.90;;;;;;6266007;28;20045;-80
2023/10/27 13:26:34;;;;;;;1.10;0.50;;;17.10;99.90;;;;;;6262265;28;20041;-80
2023/10/27 13:29:37;;;;;;;0.60;0.60;;;17.10;99.90;;;;;;6265446;28;20525;-81
2023/10/27 13:32:41;;;;;;;1.23;1.13;;;17.10;99.90;;;;;;6274065;28;20048;-82
2023/10/27 13:35:45;;;;;;;2.20;0.50;;;17.00;99.90;;;;;;6265178;28;20045;-83
2023/10/27 13:38:47;;;;;;;1.40;0.80;;;16.80;99.90;;;;;;6270901;28;20114;-81
2023/10/27 13:41:49;;;;;;;0.73;0.50;;;16.50;99.90;;;;;;6263167;28;20052;-81
2023/10/27 13:44:51;;;;;;;0.85;0.68;;;16.10;99.90;;;;;;6243401;28;20063;-82
2023/10/27 13:47:53;;;;;;;4.85;1.63;;;15.60;99.90;;;;;;6240290;28;20053;-82
2023/10/27 13:50:56;;;;;;;3.20;0.57;;;15.30;99.90;;;;;;6230613;28;20426;-82
2023/10/27 13:53:58;;;;;;;1.85;0.68;;;15.00;99.90;;;;;;6233631;28;20049;-82
2023/10/27 13:57:00;;;;;;;1.98;1.13;;;14.90;99.90;;;;;;6234252;28;20046;-83
2023/10/27 14:00:03;;;;;;;2.22;0.75;;;14.80;99.90;;;;;;6232999;28;20045;-81
2023/10/27 14:03:06;;;;;;;0.60;0.60;;;14.70;99.90;;;;;;6226717;28;20053;-81
2023/10/27 14:06:12;;;;;;;2.30;1.08;;;14.50;99.90;;;;;;6229505;28;20042;-82
2023/10/27 14:09:15;;;;;;;1.00;0.98;;;14.50;99.90;;;;;;6236848;28;20052;-81
2023/10/27 14:12:16;;;;;;;4.22;0.82;;;14.50;99.90;;;;;;6223323;28;20064;-79
2023/10/27 14:15:21;;;;;;;2.25;1.67;;;14.50;99.90;;;;;;6233957;28;20576;-82
2023/10/27 14:18:23;;;;;;;0.90;0.57;;;14.40;99.90;;;;;;6261666;28;20048;-80
2023/10/27 14:21:26;;;;;;;1.40;0.80;;;14.40;99.90;;;;;;6246104;28;20160;-79
2023/10/27 14:24:28;;;;;;;4.07;1.63;;;14.40;99.90;;;;;;6237672;28;20037;-80
2023/10/27 14:27:30;;;;;;;0.50;0.50;;;14.40;99.90;;;;;;6234077;28;20148;-79
2023/10/27 14:30:32;;;;;;;0.50;0.50;;;14.40;99.90;;;;;;6235565;28;20056;-82
2023/10/27 14:33:34;;;;;;;2.03;0.65;;;14.40;99.90;;;;;;6231908;28;20048;-82
2023/10/27 14:36:39;;;;;;;0.73;0.70;;;14.40;99.90;;;;;;6235898;28;20501;-80
2023/10/27 14:39:42;;;;;;;0.90;0.85;;;14.30;99.90;;;;;;6255946;28;20198;-79
2023/10/27 14:42:43;;;;;;;0.95;0.77;;;14.30;99.90;;;;;;6279834;28;20064;-79
2023/10/27 14:45:45;;;;;;;1.77;0.60;;;14.30;99.90;;;;;;6273427;28;20055;-80
2023/10/27 14:48:49;;;;;;;2.50;0.70;;;14.30;99.90;;;;;;6285811;28;20059;-82
2023/10/27 14:51:52;;;;;;;1.40;0.60;;;14.40;99.90;;;;;;6285769;28;20087;-80
2023/10/27 14:54:53;;;;;;;0.85;0.55;;;14.40;99.90;;;;;;6279725;28;20051;-81
2023/10/27 14:57:56;;;;;;;1.17;0.70;;;14.60;99.90;;;;;;6277072;28;20052;-82
2023/10/27 15:01:01;;;;;;;3.60;0.55;;;14.60;99.90;;;;;;6269200;28;20417;-82
2023/10/27 15:04:03;;;;;;;0.22;0.22;;;14.70;99.90;;;;;;6276883;28;20040;-80
2023/10/27 15:07:07;;;;;;;0.93;0.70;;;14.70;99.90;;;;;;6276359;28;20061;-79
2023/10/27 15:10:15;;;;;;;16.40;6.72;;;14.60;99.90;;;;;;6255929;28;20046;-79
2023/10/27 15:13:16;;;;;;;5.97;1.83;;;14.60;99.90;;;;;;6249293;28;20056;-78
2023/10/27 15:16:19;;;;;;;1.05;0.95;;;14.50;99.90;;;;;;6252044;28;20045;-80
2023/10/27 15:19:21;;;;;;;3.60;2.50;;;14.40;99.90;;;;;;6277172;28;20037;-79
2023/10/27 15:22:24;;;;;;;1.27;1.17;;;14.30;99.90;;;;;;6262944;28;20046;-79
2023/10/27 15:25:26;;;;;;;1.48;1.30;;;14.20;99.90;;;;;;6275999;28;20564;-79
2023/10/27 15:28:28;;;;;;;3.63;0.90;;;14.10;99.90;;;;;;6267805;28;20385;-79
2023/10/27 15:31:30;;;;;;;1.92;1.30;;;14.00;99.90;;;;;;6261883;28;20048;-79
2023/10/27 15:34:32;;;;;;;0.40;0.40;;;14.00;99.90;;;;;;6275658;28;20522;-80
2023/10/27 15:37:35;;;;;;;1.35;0.50;;;14.00;99.90;;;;;;6276784;28;20044;-77
2023/10/27 15:40:37;;;;;;;5.28;0.70;;;13.90;99.90;;;;;;6270085;28;20044;-77
2023/10/27 15:43:39;;;;;;;0.82;0.82;;;13.80;99.90;;;;;;6276318;28;20048;-78
2023/10/27 15:46:41;;;;;;;0.50;0.43;;;13.80;99.90;;;;;;6276312;28;20055;-79
2023/10/27 15:49:43;;;;;;;0.85;0.45;;;13.70;99.90;;;;;;6273975;28;20041;-78